AIC537 VIDP-VOMM
Flight info
| Callsign | AIC537 |
|---|---|
| Flight time | 2h 16m |
| Altitude | 40000 |
| Route | AKRIB6C AKRIB Q23 IKAVA/N0488F410 Q23 RINTO RINTO2F |
| Aircraft | A359/H-SDE2E3GHIJ3J4J5LM1ORWXY/LB1D1 |
Departure
| Time | 2026-04-26 11:59 |
|---|---|
| Airport | Indira Gandhi International Airport (VIDP) |
Arrival
| Time | 2026-04-26 14:16 |
|---|---|
| Airport | Chennai International Airport (VOMM) |
| Time | Latitude | Longitude | Altitude | Speed | Heading |
|---|---|---|---|---|---|
| 2026-04-26 11:23 | 28.55277 | 77.08304 | 749 ft | 0 kts | 149° |
| 2026-04-26 11:38 | 28.55290 | 77.08296 | 743 ft | 2 kts | 149° |
| 2026-04-26 11:39 | 28.55304 | 77.08287 | 742 ft | 2 kts | 144° |
| 2026-04-26 11:39 | 28.55313 | 77.08277 | 745 ft | 2 kts | 131° |
| 2026-04-26 11:39 | 28.55320 | 77.08267 | 740 ft | 2 kts | 120° |
| 2026-04-26 11:39 | 28.55325 | 77.08256 | 740 ft | 2 kts | 108° |
| 2026-04-26 11:40 | 28.55328 | 77.08243 | 740 ft | 2 kts | 97° |
| 2026-04-26 11:40 | 28.55328 | 77.08231 | 740 ft | 2 kts | 85° |
| 2026-04-26 11:40 | 28.55327 | 77.08218 | 740 ft | 2 kts | 74° |
| 2026-04-26 11:40 | 28.55323 | 77.08207 | 740 ft | 0 kts | 64° |
| 2026-04-26 11:44 | 28.55324 | 77.08209 | 740 ft | 0 kts | 64° |
| 2026-04-26 11:45 | 28.55325 | 77.08211 | 740 ft | 1 kts | 64° |
| 2026-04-26 11:45 | 28.55337 | 77.08234 | 740 ft | 5 kts | 57° |
| 2026-04-26 11:45 | 28.55372 | 77.08265 | 741 ft | 8 kts | 17° |
| 2026-04-26 11:45 | 28.55419 | 77.08245 | 743 ft | 6 kts | 306° |
| 2026-04-26 11:46 | 28.55410 | 77.08200 | 742 ft | 7 kts | 248° |
| 2026-04-26 11:46 | 28.55383 | 77.08135 | 743 ft | 11 kts | 243° |
| 2026-04-26 11:46 | 28.55339 | 77.08052 | 743 ft | 14 kts | 238° |
| 2026-04-26 11:46 | 28.55286 | 77.07954 | 743 ft | 12 kts | 238° |
| 2026-04-26 11:47 | 28.55280 | 77.07944 | 743 ft | 2 kts | 238° |
| 2026-04-26 11:47 | 28.55261 | 77.07903 | 741 ft | 8 kts | 245° |
| 2026-04-26 11:47 | 28.55250 | 77.07831 | 743 ft | 11 kts | 266° |
| 2026-04-26 11:47 | 28.55214 | 77.07757 | 743 ft | 12 kts | 213° |
| 2026-04-26 11:48 | 28.55142 | 77.07771 | 740 ft | 12 kts | 128° |
| 2026-04-26 11:48 | 28.55110 | 77.07865 | 742 ft | 14 kts | 103° |
| 2026-04-26 11:48 | 28.55081 | 77.07986 | 742 ft | 17 kts | 107° |
| 2026-04-26 11:48 | 28.55049 | 77.08123 | 746 ft | 19 kts | 104° |
| 2026-04-26 11:49 | 28.55014 | 77.08276 | 749 ft | 21 kts | 105° |
| 2026-04-26 11:49 | 28.54975 | 77.08441 | 749 ft | 22 kts | 105° |
| 2026-04-26 11:49 | 28.54944 | 77.08575 | 750 ft | 14 kts | 105° |
| 2026-04-26 11:49 | 28.54917 | 77.08690 | 753 ft | 16 kts | 104° |
| 2026-04-26 11:50 | 28.54888 | 77.08822 | 752 ft | 18 kts | 104° |
| 2026-04-26 11:50 | 28.54854 | 77.08967 | 753 ft | 20 kts | 105° |
| 2026-04-26 11:50 | 28.54817 | 77.09127 | 759 ft | 22 kts | 105° |
| 2026-04-26 11:50 | 28.54781 | 77.09283 | 756 ft | 17 kts | 104° |
| 2026-04-26 11:51 | 28.54749 | 77.09422 | 759 ft | 19 kts | 105° |
| 2026-04-26 11:51 | 28.54713 | 77.09576 | 764 ft | 21 kts | 105° |
| 2026-04-26 11:51 | 28.54677 | 77.09733 | 766 ft | 21 kts | 104° |
| 2026-04-26 11:51 | 28.54639 | 77.09896 | 768 ft | 22 kts | 104° |
| 2026-04-26 11:52 | 28.54601 | 77.10065 | 771 ft | 22 kts | 104° |
| 2026-04-26 11:52 | 28.54575 | 77.10177 | 772 ft | 22 kts | 104° |
| 2026-04-26 11:52 | 28.54527 | 77.10383 | 775 ft | 20 kts | 105° |
| 2026-04-26 11:52 | 28.54498 | 77.10507 | 776 ft | 0 kts | 105° |
| 2026-04-26 11:54 | 28.54495 | 77.10519 | 776 ft | 5 kts | 105° |
| 2026-04-26 11:54 | 28.54471 | 77.10571 | 777 ft | 9 kts | 133° |
| 2026-04-26 11:54 | 28.54409 | 77.10585 | 778 ft | 11 kts | 185° |
| 2026-04-26 11:55 | 28.54324 | 77.10562 | 778 ft | 14 kts | 194° |
| 2026-04-26 11:55 | 28.54217 | 77.10532 | 778 ft | 17 kts | 194° |
| 2026-04-26 11:55 | 28.54115 | 77.10504 | 779 ft | 10 kts | 189° |
| 2026-04-26 11:55 | 28.54050 | 77.10537 | 779 ft | 11 kts | 123° |
| 2026-04-26 11:56 | 28.54021 | 77.10629 | 780 ft | 14 kts | 104° |
| 2026-04-26 11:56 | 28.53997 | 77.10743 | 781 ft | 16 kts | 103° |
| 2026-04-26 11:56 | 28.53969 | 77.10872 | 783 ft | 18 kts | 104° |
| 2026-04-26 11:56 | 28.53937 | 77.11014 | 784 ft | 19 kts | 108° |
| 2026-04-26 11:57 | 28.53906 | 77.11050 | 785 ft | 0 kts | 160° |
| 2026-04-26 11:57 | 28.53904 | 77.11051 | 785 ft | 1 kts | 160° |
| 2026-04-26 11:57 | 28.53878 | 77.11058 | 785 ft | 7 kts | 173° |
| 2026-04-26 11:58 | 28.53816 | 77.11026 | 785 ft | 13 kts | 229° |
| 2026-04-26 11:58 | 28.53784 | 77.10907 | 783 ft | 19 kts | 269° |
| 2026-04-26 11:58 | 28.53814 | 77.10742 | 782 ft | 28 kts | 285° |
| 2026-04-26 11:58 | 28.53921 | 77.10263 | 776 ft | 98 kts | 284° |
| 2026-04-26 11:59 | 28.54134 | 77.09278 | 764 ft | 158 kts | 284° |
| 2026-04-26 11:59 | 28.54423 | 77.07917 | 1022 ft | 193 kts | 284° |
| 2026-04-26 11:59 | 28.54431 | 77.06297 | 1589 ft | 214 kts | 265° |
| 2026-04-26 11:59 | 28.53760 | 77.04732 | 2261 ft | 236 kts | 231° |
| 2026-04-26 12:00 | 28.52251 | 77.03781 | 2642 ft | 267 kts | 194° |
| 2026-04-26 12:00 | 28.50362 | 77.03558 | 3294 ft | 277 kts | 188° |
| 2026-04-26 12:00 | 28.48434 | 77.03270 | 4082 ft | 280 kts | 194° |
| 2026-04-26 12:00 | 28.46548 | 77.02823 | 4902 ft | 281 kts | 197° |
| 2026-04-26 12:01 | 28.44621 | 77.02259 | 5682 ft | 284 kts | 199° |
| 2026-04-26 12:01 | 28.42735 | 77.01648 | 6289 ft | 287 kts | 200° |
| 2026-04-26 12:01 | 28.40822 | 77.00997 | 6642 ft | 288 kts | 201° |
| 2026-04-26 12:01 | 28.38903 | 77.00324 | 6734 ft | 289 kts | 201° |
| 2026-04-26 12:02 | 28.36976 | 76.99654 | 6702 ft | 290 kts | 199° |
| 2026-04-26 12:02 | 28.35651 | 76.99290 | 6839 ft | 292 kts | 196° |
| 2026-04-26 12:02 | 28.32996 | 76.98624 | 7661 ft | 297 kts | 196° |
| 2026-04-26 12:02 | 28.30971 | 76.98130 | 8552 ft | 297 kts | 196° |
| 2026-04-26 12:03 | 28.28948 | 76.97641 | 9443 ft | 299 kts | 197° |
| 2026-04-26 12:03 | 28.26893 | 76.97147 | 10125 ft | 308 kts | 197° |
| 2026-04-26 12:03 | 28.24724 | 76.96622 | 10470 ft | 329 kts | 196° |
| 2026-04-26 12:03 | 28.22414 | 76.96068 | 10805 ft | 349 kts | 196° |
| 2026-04-26 12:04 | 28.19982 | 76.95490 | 11154 ft | 365 kts | 195° |
| 2026-04-26 12:04 | 28.17469 | 76.94899 | 11754 ft | 371 kts | 195° |
| 2026-04-26 12:04 | 28.14928 | 76.94301 | 12407 ft | 376 kts | 195° |
| 2026-04-26 12:04 | 28.12343 | 76.93692 | 13050 ft | 381 kts | 195° |
| 2026-04-26 12:05 | 28.09734 | 76.93076 | 13668 ft | 385 kts | 195° |
| 2026-04-26 12:05 | 28.07094 | 76.92453 | 14237 ft | 390 kts | 195° |
| 2026-04-26 12:05 | 28.05330 | 76.92038 | 14626 ft | 392 kts | 195° |
| 2026-04-26 12:05 | 28.02643 | 76.91404 | 15202 ft | 397 kts | 195° |
| 2026-04-26 12:06 | 27.99036 | 76.90553 | 15945 ft | 402 kts | 195° |
| 2026-04-26 12:06 | 27.96284 | 76.89905 | 16512 ft | 406 kts | 195° |
| 2026-04-26 12:06 | 27.93502 | 76.89251 | 17060 ft | 411 kts | 195° |
| 2026-04-26 12:06 | 27.90665 | 76.88678 | 17612 ft | 417 kts | 192° |
| 2026-04-26 12:07 | 27.87780 | 76.88180 | 18142 ft | 421 kts | 192° |
| 2026-04-26 12:07 | 27.85820 | 76.87842 | 18451 ft | 423 kts | 192° |
| 2026-04-26 12:07 | 27.81946 | 76.87159 | 19128 ft | 427 kts | 192° |
| 2026-04-26 12:07 | 27.79004 | 76.86633 | 19645 ft | 430 kts | 192° |
| 2026-04-26 12:08 | 27.77047 | 76.86280 | 20000 ft | 432 kts | 192° |
| 2026-04-26 12:08 | 27.73046 | 76.85557 | 20719 ft | 437 kts | 192° |
| 2026-04-26 12:08 | 27.71051 | 76.85195 | 21084 ft | 439 kts | 192° |
| 2026-04-26 12:08 | 27.68026 | 76.84647 | 21624 ft | 442 kts | 192° |
| 2026-04-26 12:09 | 27.64978 | 76.84095 | 22146 ft | 446 kts | 192° |
| 2026-04-26 12:09 | 27.61900 | 76.83537 | 22683 ft | 449 kts | 192° |
| 2026-04-26 12:09 | 27.58804 | 76.82976 | 23210 ft | 453 kts | 192° |
| 2026-04-26 12:09 | 27.55678 | 76.82410 | 23671 ft | 456 kts | 192° |
| 2026-04-26 12:10 | 27.52537 | 76.81842 | 24136 ft | 459 kts | 192° |
| 2026-04-26 12:10 | 27.49365 | 76.81269 | 24626 ft | 462 kts | 192° |
| 2026-04-26 12:10 | 27.46182 | 76.80693 | 25127 ft | 465 kts | 192° |
| 2026-04-26 12:10 | 27.42977 | 76.80114 | 25664 ft | 468 kts | 192° |
| 2026-04-26 12:11 | 27.39752 | 76.79514 | 26173 ft | 471 kts | 193° |
| 2026-04-26 12:11 | 27.36542 | 76.78745 | 26704 ft | 472 kts | 196° |
| 2026-04-26 12:11 | 27.33341 | 76.77854 | 27241 ft | 475 kts | 197° |
| 2026-04-26 12:11 | 27.30137 | 76.76922 | 27758 ft | 477 kts | 197° |
| 2026-04-26 12:12 | 27.26909 | 76.75988 | 28283 ft | 480 kts | 197° |
| 2026-04-26 12:12 | 27.23661 | 76.75069 | 28807 ft | 483 kts | 197° |
| 2026-04-26 12:12 | 27.20387 | 76.74164 | 29308 ft | 486 kts | 196° |
| 2026-04-26 12:12 | 27.18205 | 76.73571 | 29648 ft | 488 kts | 196° |
| 2026-04-26 12:13 | 27.13825 | 76.72393 | 30218 ft | 491 kts | 196° |
| 2026-04-26 12:13 | 27.10497 | 76.71505 | 30647 ft | 492 kts | 196° |
| 2026-04-26 12:13 | 27.07160 | 76.70616 | 31063 ft | 494 kts | 196° |
| 2026-04-26 12:13 | 27.03806 | 76.69723 | 31464 ft | 496 kts | 196° |
| 2026-04-26 12:14 | 27.00442 | 76.68827 | 31858 ft | 498 kts | 196° |
| 2026-04-26 12:14 | 26.97066 | 76.67927 | 32249 ft | 499 kts | 196° |
| 2026-04-26 12:14 | 26.93685 | 76.67025 | 32621 ft | 501 kts | 196° |
| 2026-04-26 12:14 | 26.90305 | 76.66125 | 33113 ft | 499 kts | 196° |
| 2026-04-26 12:15 | 26.86940 | 76.65230 | 33713 ft | 495 kts | 196° |
| 2026-04-26 12:15 | 26.83604 | 76.64343 | 34192 ft | 492 kts | 196° |
| 2026-04-26 12:15 | 26.80272 | 76.63456 | 34579 ft | 491 kts | 196° |
| 2026-04-26 12:15 | 26.76948 | 76.62572 | 34956 ft | 491 kts | 196° |
| 2026-04-26 12:16 | 26.73634 | 76.61690 | 35312 ft | 491 kts | 196° |
| 2026-04-26 12:16 | 26.70309 | 76.60807 | 35669 ft | 491 kts | 196° |
| 2026-04-26 12:16 | 26.66986 | 76.59925 | 36005 ft | 490 kts | 196° |
| 2026-04-26 12:16 | 26.63670 | 76.59045 | 36346 ft | 490 kts | 197° |
| 2026-04-26 12:17 | 26.60397 | 76.58177 | 36688 ft | 490 kts | 197° |
| 2026-04-26 12:17 | 26.57077 | 76.57297 | 37034 ft | 489 kts | 197° |
| 2026-04-26 12:17 | 26.53773 | 76.56422 | 37366 ft | 488 kts | 197° |
| 2026-04-26 12:17 | 26.50471 | 76.55548 | 37700 ft | 488 kts | 197° |
| 2026-04-26 12:18 | 26.47170 | 76.54675 | 38035 ft | 487 kts | 197° |
| 2026-04-26 12:18 | 26.43879 | 76.53810 | 38359 ft | 486 kts | 197° |
| 2026-04-26 12:18 | 26.40589 | 76.52949 | 38622 ft | 485 kts | 197° |
| 2026-04-26 12:18 | 26.37303 | 76.52090 | 38897 ft | 484 kts | 197° |
| 2026-04-26 12:19 | 26.34028 | 76.51234 | 39163 ft | 483 kts | 197° |
| 2026-04-26 12:19 | 26.30757 | 76.50380 | 39424 ft | 482 kts | 197° |
| 2026-04-26 12:19 | 26.27499 | 76.49529 | 39649 ft | 481 kts | 197° |
| 2026-04-26 12:20 | 26.20966 | 76.47823 | 39735 ft | 481 kts | 197° |
| 2026-04-26 12:20 | 26.14448 | 76.46124 | 39735 ft | 481 kts | 197° |
| 2026-04-26 12:21 | 26.07938 | 76.44429 | 39735 ft | 480 kts | 197° |
| 2026-04-26 12:21 | 26.01436 | 76.42738 | 39736 ft | 480 kts | 197° |
| 2026-04-26 12:22 | 25.94904 | 76.41127 | 39737 ft | 482 kts | 192° |
| 2026-04-26 12:22 | 25.88159 | 76.41037 | 39742 ft | 491 kts | 175° |
| 2026-04-26 12:23 | 25.81509 | 76.42951 | 39740 ft | 496 kts | 166° |
| 2026-04-26 12:23 | 25.74936 | 76.45333 | 39740 ft | 497 kts | 165° |
| 2026-04-26 12:24 | 25.68367 | 76.47747 | 39741 ft | 497 kts | 165° |
| 2026-04-26 12:24 | 25.61832 | 76.50101 | 39745 ft | 497 kts | 165° |
| 2026-04-26 12:25 | 25.51946 | 76.53616 | 39743 ft | 497 kts | 165° |
| 2026-04-26 12:25 | 25.45359 | 76.55952 | 39743 ft | 497 kts | 165° |
| 2026-04-26 12:26 | 25.38775 | 76.58285 | 39750 ft | 497 kts | 165° |
| 2026-04-26 12:26 | 25.32188 | 76.60617 | 39749 ft | 497 kts | 165° |
| 2026-04-26 12:27 | 25.25609 | 76.62944 | 39751 ft | 497 kts | 165° |
| 2026-04-26 12:27 | 25.19027 | 76.65270 | 39751 ft | 497 kts | 165° |
| 2026-04-26 12:28 | 25.12447 | 76.67592 | 39756 ft | 497 kts | 165° |
| 2026-04-26 12:28 | 25.05867 | 76.69912 | 39757 ft | 497 kts | 165° |
| 2026-04-26 12:29 | 24.99282 | 76.72231 | 39761 ft | 496 kts | 165° |
| 2026-04-26 12:30 | 24.89433 | 76.75774 | 39762 ft | 496 kts | 165° |
| 2026-04-26 12:30 | 24.82879 | 76.78141 | 39766 ft | 496 kts | 165° |
| 2026-04-26 12:31 | 24.73080 | 76.81665 | 39767 ft | 496 kts | 165° |
| 2026-04-26 12:31 | 24.66524 | 76.84018 | 39773 ft | 496 kts | 165° |
| 2026-04-26 12:32 | 24.59960 | 76.86370 | 39770 ft | 496 kts | 165° |
| 2026-04-26 12:33 | 24.50125 | 76.89891 | 39779 ft | 496 kts | 165° |
| 2026-04-26 12:33 | 24.43547 | 76.92197 | 39780 ft | 494 kts | 168° |
| 2026-04-26 12:34 | 24.36809 | 76.93260 | 39783 ft | 488 kts | 180° |
| 2026-04-26 12:34 | 24.30028 | 76.93623 | 39787 ft | 487 kts | 181° |
| 2026-04-26 12:35 | 24.23257 | 76.93879 | 39782 ft | 487 kts | 181° |
| 2026-04-26 12:35 | 24.16492 | 76.94146 | 39782 ft | 487 kts | 181° |
| 2026-04-26 12:36 | 24.09724 | 76.94434 | 39785 ft | 486 kts | 181° |
| 2026-04-26 12:36 | 24.02967 | 76.94730 | 39788 ft | 486 kts | 181° |
| 2026-04-26 12:37 | 23.96259 | 76.95024 | 39789 ft | 485 kts | 181° |
| 2026-04-26 12:37 | 23.89510 | 76.95319 | 39786 ft | 485 kts | 181° |
| 2026-04-26 12:38 | 23.82770 | 76.95612 | 39790 ft | 485 kts | 181° |
| 2026-04-26 12:38 | 23.76025 | 76.95906 | 39792 ft | 484 kts | 181° |
| 2026-04-26 12:39 | 23.69291 | 76.96198 | 39793 ft | 484 kts | 181° |
| 2026-04-26 12:39 | 23.62564 | 76.96490 | 39797 ft | 484 kts | 181° |
| 2026-04-26 12:40 | 23.55833 | 76.96781 | 39798 ft | 484 kts | 181° |
| 2026-04-26 12:40 | 23.49113 | 76.97072 | 39804 ft | 483 kts | 181° |
| 2026-04-26 12:41 | 23.42393 | 76.97363 | 39804 ft | 483 kts | 181° |
| 2026-04-26 12:41 | 23.35677 | 76.97653 | 39806 ft | 483 kts | 181° |
| 2026-04-26 12:42 | 23.29012 | 76.97941 | 39804 ft | 483 kts | 181° |
| 2026-04-26 12:42 | 23.22305 | 76.98231 | 39809 ft | 483 kts | 181° |
| 2026-04-26 12:43 | 23.15595 | 76.98668 | 39825 ft | 486 kts | 175° |
| 2026-04-26 12:43 | 23.08939 | 77.00138 | 39819 ft | 489 kts | 171° |
| 2026-04-26 12:44 | 23.02314 | 77.01849 | 39816 ft | 490 kts | 171° |
| 2026-04-26 12:44 | 22.95692 | 77.03588 | 39813 ft | 490 kts | 171° |
| 2026-04-26 12:45 | 22.89056 | 77.05310 | 39805 ft | 491 kts | 171° |
| 2026-04-26 12:45 | 22.82414 | 77.07019 | 39804 ft | 491 kts | 171° |
| 2026-04-26 12:46 | 22.75762 | 77.08725 | 39793 ft | 491 kts | 171° |
| 2026-04-26 12:46 | 22.69107 | 77.10432 | 39793 ft | 492 kts | 171° |
| 2026-04-26 12:47 | 22.62447 | 77.12138 | 39782 ft | 492 kts | 171° |
| 2026-04-26 12:47 | 22.55793 | 77.13842 | 39777 ft | 491 kts | 171° |
| 2026-04-26 12:48 | 22.49182 | 77.15533 | 39777 ft | 491 kts | 172° |
| 2026-04-26 12:48 | 22.42543 | 77.17229 | 39775 ft | 491 kts | 172° |
| 2026-04-26 12:49 | 22.35900 | 77.18928 | 39773 ft | 490 kts | 172° |
| 2026-04-26 12:49 | 22.29264 | 77.20643 | 39776 ft | 490 kts | 172° |
| 2026-04-26 12:50 | 22.22631 | 77.22355 | 39776 ft | 490 kts | 172° |
| 2026-04-26 12:50 | 22.15999 | 77.24064 | 39779 ft | 490 kts | 172° |
| 2026-04-26 12:51 | 22.09362 | 77.25772 | 39775 ft | 490 kts | 172° |
| 2026-04-26 12:51 | 22.02730 | 77.27478 | 39777 ft | 490 kts | 172° |
| 2026-04-26 12:52 | 21.96098 | 77.29182 | 39778 ft | 490 kts | 172° |
| 2026-04-26 12:52 | 21.89463 | 77.30885 | 39784 ft | 490 kts | 172° |
| 2026-04-26 12:53 | 21.82871 | 77.32576 | 39784 ft | 490 kts | 172° |
| 2026-04-26 12:53 | 21.76237 | 77.34276 | 39787 ft | 490 kts | 172° |
| 2026-04-26 12:54 | 21.69601 | 77.35974 | 39789 ft | 490 kts | 172° |
| 2026-04-26 12:54 | 21.62965 | 77.37672 | 39789 ft | 490 kts | 172° |
| 2026-04-26 12:55 | 21.56323 | 77.39337 | 39793 ft | 489 kts | 173° |
| 2026-04-26 12:55 | 21.49674 | 77.40878 | 39796 ft | 489 kts | 174° |
| 2026-04-26 12:56 | 21.43016 | 77.42407 | 39791 ft | 489 kts | 174° |
| 2026-04-26 12:56 | 21.36374 | 77.43952 | 39790 ft | 489 kts | 173° |
| 2026-04-26 12:57 | 21.29724 | 77.45508 | 39791 ft | 489 kts | 173° |
| 2026-04-26 12:57 | 21.23082 | 77.47060 | 39781 ft | 489 kts | 173° |
| 2026-04-26 12:58 | 21.13114 | 77.49388 | 39773 ft | 488 kts | 173° |
| 2026-04-26 12:58 | 21.06479 | 77.50935 | 39769 ft | 488 kts | 173° |
| 2026-04-26 12:59 | 20.99841 | 77.52481 | 39771 ft | 488 kts | 173° |
| 2026-04-26 12:59 | 20.93261 | 77.54013 | 39766 ft | 487 kts | 173° |
| 2026-04-26 13:00 | 20.86634 | 77.55554 | 39756 ft | 487 kts | 173° |
| 2026-04-26 13:00 | 20.80014 | 77.57107 | 39758 ft | 487 kts | 173° |
| 2026-04-26 13:01 | 20.73395 | 77.58671 | 39759 ft | 487 kts | 173° |
| 2026-04-26 13:01 | 20.66780 | 77.60232 | 39758 ft | 487 kts | 173° |
| 2026-04-26 13:02 | 20.60168 | 77.61790 | 39759 ft | 486 kts | 173° |
| 2026-04-26 13:02 | 20.54678 | 77.63082 | 39756 ft | 486 kts | 173° |
| 2026-04-26 13:03 | 20.46960 | 77.64896 | 39757 ft | 486 kts | 173° |
| 2026-04-26 13:03 | 20.40409 | 77.66434 | 39752 ft | 486 kts | 173° |
| 2026-04-26 13:04 | 20.34880 | 77.67732 | 39750 ft | 485 kts | 173° |
| 2026-04-26 13:04 | 20.28286 | 77.69278 | 39750 ft | 485 kts | 173° |
| 2026-04-26 13:05 | 20.20628 | 77.71072 | 39750 ft | 485 kts | 173° |
| 2026-04-26 13:05 | 20.15156 | 77.72353 | 39747 ft | 485 kts | 173° |
| 2026-04-26 13:06 | 20.08574 | 77.73893 | 39743 ft | 484 kts | 173° |
| 2026-04-26 13:06 | 20.01991 | 77.75431 | 39741 ft | 484 kts | 173° |
| 2026-04-26 13:07 | 19.95420 | 77.76965 | 39738 ft | 483 kts | 173° |
| 2026-04-26 13:07 | 19.88852 | 77.78498 | 39741 ft | 483 kts | 173° |
| 2026-04-26 13:08 | 19.82286 | 77.80028 | 39737 ft | 483 kts | 173° |
| 2026-04-26 13:08 | 19.75727 | 77.81555 | 39738 ft | 483 kts | 173° |
| 2026-04-26 13:09 | 19.69168 | 77.83081 | 39738 ft | 483 kts | 173° |
| 2026-04-26 13:09 | 19.62603 | 77.84608 | 39746 ft | 482 kts | 173° |
| 2026-04-26 13:10 | 19.56049 | 77.86130 | 39745 ft | 482 kts | 173° |
| 2026-04-26 13:10 | 19.49496 | 77.87651 | 39744 ft | 482 kts | 173° |
| 2026-04-26 13:11 | 19.42943 | 77.89171 | 39755 ft | 482 kts | 173° |
| 2026-04-26 13:11 | 19.36434 | 77.90680 | 39757 ft | 482 kts | 173° |
| 2026-04-26 13:12 | 19.29887 | 77.92195 | 39756 ft | 482 kts | 173° |
| 2026-04-26 13:12 | 19.23335 | 77.93722 | 39757 ft | 482 kts | 173° |
| 2026-04-26 13:13 | 19.16787 | 77.95252 | 39761 ft | 482 kts | 173° |
| 2026-04-26 13:13 | 19.10241 | 77.96779 | 39762 ft | 482 kts | 173° |
| 2026-04-26 13:14 | 19.03694 | 77.98304 | 39766 ft | 482 kts | 173° |
| 2026-04-26 13:14 | 18.97149 | 77.99829 | 39765 ft | 481 kts | 173° |
| 2026-04-26 13:15 | 18.90837 | 78.01309 | 39767 ft | 481 kts | 173° |
| 2026-04-26 13:15 | 18.84299 | 78.02845 | 39772 ft | 481 kts | 173° |
| 2026-04-26 13:16 | 18.77763 | 78.04381 | 39775 ft | 481 kts | 173° |
| 2026-04-26 13:16 | 18.72355 | 78.05649 | 39775 ft | 481 kts | 173° |
| 2026-04-26 13:17 | 18.63978 | 78.07611 | 39783 ft | 480 kts | 173° |
| 2026-04-26 13:18 | 18.54199 | 78.09898 | 39789 ft | 480 kts | 173° |
| 2026-04-26 13:19 | 18.44425 | 78.12183 | 39796 ft | 479 kts | 173° |
| 2026-04-26 13:19 | 18.37917 | 78.13702 | 39798 ft | 479 kts | 173° |
| 2026-04-26 13:20 | 18.31419 | 78.15218 | 39804 ft | 478 kts | 173° |
| 2026-04-26 13:20 | 18.24920 | 78.16732 | 39805 ft | 478 kts | 173° |
| 2026-04-26 13:21 | 18.18423 | 78.18246 | 39813 ft | 478 kts | 173° |
| 2026-04-26 13:21 | 18.12086 | 78.20519 | 39818 ft | 488 kts | 158° |
| 2026-04-26 13:22 | 18.06504 | 78.24692 | 39823 ft | 498 kts | 144° |
| 2026-04-26 13:22 | 18.01349 | 78.29585 | 39825 ft | 500 kts | 142° |
| 2026-04-26 13:23 | 17.96252 | 78.34556 | 39827 ft | 500 kts | 142° |
| 2026-04-26 13:23 | 17.91132 | 78.39500 | 39839 ft | 500 kts | 142° |
| 2026-04-26 13:24 | 17.85994 | 78.44416 | 39841 ft | 499 kts | 142° |
| 2026-04-26 13:24 | 17.80853 | 78.49317 | 39848 ft | 499 kts | 142° |
| 2026-04-26 13:25 | 17.75748 | 78.54180 | 39854 ft | 499 kts | 142° |
| 2026-04-26 13:25 | 17.70610 | 78.59074 | 39857 ft | 499 kts | 142° |
| 2026-04-26 13:26 | 17.65475 | 78.63961 | 39860 ft | 499 kts | 142° |
| 2026-04-26 13:26 | 17.60335 | 78.68849 | 39862 ft | 499 kts | 142° |
| 2026-04-26 13:27 | 17.55192 | 78.73735 | 39857 ft | 499 kts | 142° |
| 2026-04-26 13:27 | 17.50047 | 78.78621 | 39857 ft | 500 kts | 142° |
| 2026-04-26 13:28 | 17.44892 | 78.83521 | 39853 ft | 500 kts | 142° |
| 2026-04-26 13:28 | 17.39753 | 78.88435 | 39843 ft | 501 kts | 141° |
| 2026-04-26 13:29 | 17.34600 | 78.93362 | 39836 ft | 502 kts | 141° |
| 2026-04-26 13:29 | 17.29441 | 78.98288 | 39826 ft | 503 kts | 142° |
| 2026-04-26 13:30 | 17.24272 | 79.03219 | 39823 ft | 503 kts | 142° |
| 2026-04-26 13:30 | 17.19088 | 79.08158 | 39814 ft | 504 kts | 142° |
| 2026-04-26 13:31 | 17.13934 | 79.13065 | 39807 ft | 505 kts | 142° |
| 2026-04-26 13:31 | 17.08731 | 79.18016 | 39807 ft | 506 kts | 142° |
| 2026-04-26 13:32 | 17.03525 | 79.22966 | 39804 ft | 506 kts | 142° |
| 2026-04-26 13:32 | 16.98171 | 79.27715 | 39803 ft | 501 kts | 151° |
| 2026-04-26 13:33 | 16.92008 | 79.30803 | 39798 ft | 486 kts | 169° |
| 2026-04-26 13:33 | 16.85508 | 79.32592 | 39794 ft | 483 kts | 172° |
| 2026-04-26 13:34 | 16.78971 | 79.34181 | 39792 ft | 482 kts | 172° |
| 2026-04-26 13:34 | 16.72478 | 79.35763 | 39793 ft | 481 kts | 172° |
| 2026-04-26 13:35 | 16.65967 | 79.37381 | 39789 ft | 481 kts | 172° |
| 2026-04-26 13:35 | 16.59461 | 79.39011 | 39790 ft | 480 kts | 172° |
| 2026-04-26 13:36 | 16.52965 | 79.40640 | 39794 ft | 480 kts | 172° |
| 2026-04-26 13:36 | 16.46463 | 79.42268 | 39794 ft | 480 kts | 172° |
| 2026-04-26 13:37 | 16.39966 | 79.43891 | 39794 ft | 480 kts | 172° |
| 2026-04-26 13:37 | 16.33475 | 79.45512 | 39794 ft | 480 kts | 172° |
| 2026-04-26 13:38 | 16.26975 | 79.47135 | 39793 ft | 480 kts | 172° |
| 2026-04-26 13:38 | 16.20521 | 79.48745 | 39793 ft | 480 kts | 172° |
| 2026-04-26 13:39 | 16.14021 | 79.50366 | 39790 ft | 480 kts | 172° |
| 2026-04-26 13:39 | 16.07521 | 79.51985 | 39790 ft | 480 kts | 172° |
| 2026-04-26 13:40 | 16.01036 | 79.53669 | 39794 ft | 483 kts | 168° |
| 2026-04-26 13:40 | 15.94622 | 79.55793 | 39786 ft | 484 kts | 167° |
| 2026-04-26 13:41 | 15.88200 | 79.57896 | 39781 ft | 484 kts | 168° |
| 2026-04-26 13:41 | 15.81776 | 79.59968 | 39777 ft | 484 kts | 168° |
| 2026-04-26 13:42 | 15.75350 | 79.62031 | 39781 ft | 484 kts | 168° |
| 2026-04-26 13:42 | 15.68917 | 79.64092 | 39787 ft | 483 kts | 168° |
| 2026-04-26 13:43 | 15.62491 | 79.66148 | 39785 ft | 483 kts | 168° |
| 2026-04-26 13:43 | 15.56066 | 79.68203 | 39777 ft | 483 kts | 168° |
| 2026-04-26 13:44 | 15.49641 | 79.70256 | 39773 ft | 483 kts | 168° |
| 2026-04-26 13:44 | 15.43220 | 79.72307 | 39773 ft | 483 kts | 168° |
| 2026-04-26 13:45 | 15.36838 | 79.74344 | 39773 ft | 483 kts | 168° |
| 2026-04-26 13:45 | 15.30417 | 79.76392 | 39770 ft | 483 kts | 168° |
| 2026-04-26 13:46 | 15.24006 | 79.78435 | 39771 ft | 482 kts | 168° |
| 2026-04-26 13:46 | 15.17593 | 79.80478 | 39773 ft | 482 kts | 168° |
| 2026-04-26 13:47 | 15.11180 | 79.82520 | 39769 ft | 482 kts | 168° |
| 2026-04-26 13:47 | 15.04772 | 79.84558 | 39778 ft | 482 kts | 168° |
| 2026-04-26 13:48 | 14.98363 | 79.86596 | 39776 ft | 481 kts | 168° |
| 2026-04-26 13:48 | 14.91965 | 79.88629 | 39771 ft | 481 kts | 168° |
| 2026-04-26 13:49 | 14.85559 | 79.90663 | 39775 ft | 481 kts | 168° |
| 2026-04-26 13:49 | 14.79204 | 79.92679 | 39771 ft | 481 kts | 168° |
| 2026-04-26 13:50 | 14.72813 | 79.94706 | 39672 ft | 480 kts | 168° |
| 2026-04-26 13:50 | 14.69624 | 79.95718 | 39109 ft | 479 kts | 168° |
| 2026-04-26 13:50 | 14.66438 | 79.96728 | 38438 ft | 480 kts | 168° |
| 2026-04-26 13:50 | 14.63238 | 79.97740 | 37660 ft | 481 kts | 168° |
| 2026-04-26 13:51 | 14.60038 | 79.98753 | 36963 ft | 481 kts | 168° |
| 2026-04-26 13:51 | 14.56834 | 79.99766 | 36265 ft | 482 kts | 167° |
| 2026-04-26 13:51 | 14.53626 | 80.00781 | 35550 ft | 483 kts | 167° |
| 2026-04-26 13:51 | 14.50403 | 80.01801 | 34804 ft | 485 kts | 167° |
| 2026-04-26 13:52 | 14.47161 | 80.02825 | 33969 ft | 489 kts | 167° |
| 2026-04-26 13:52 | 14.43895 | 80.03857 | 33029 ft | 493 kts | 166° |
| 2026-04-26 13:52 | 14.40604 | 80.04897 | 32107 ft | 496 kts | 166° |
| 2026-04-26 13:52 | 14.37293 | 80.05954 | 31362 ft | 501 kts | 165° |
| 2026-04-26 13:53 | 14.33992 | 80.07183 | 30662 ft | 505 kts | 162° |
| 2026-04-26 13:53 | 14.30689 | 80.08485 | 29566 ft | 511 kts | 161° |
| 2026-04-26 13:53 | 14.27356 | 80.09791 | 28477 ft | 514 kts | 161° |
| 2026-04-26 13:53 | 14.24062 | 80.11072 | 27887 ft | 492 kts | 161° |
| 2026-04-26 13:54 | 14.20953 | 80.12275 | 27299 ft | 464 kts | 161° |
| 2026-04-26 13:54 | 14.18016 | 80.13406 | 26771 ft | 438 kts | 161° |
| 2026-04-26 13:54 | 14.15232 | 80.14474 | 26296 ft | 415 kts | 161° |
| 2026-04-26 13:55 | 14.10074 | 80.16445 | 25083 ft | 386 kts | 161° |
| 2026-04-26 13:55 | 14.08386 | 80.17087 | 24559 ft | 381 kts | 161° |
| 2026-04-26 13:55 | 14.02720 | 80.19242 | 22656 ft | 367 kts | 160° |
| 2026-04-26 13:56 | 14.00367 | 80.20139 | 21992 ft | 355 kts | 160° |
| 2026-04-26 13:56 | 13.98061 | 80.21018 | 21380 ft | 353 kts | 160° |
| 2026-04-26 13:56 | 13.95759 | 80.21895 | 20831 ft | 352 kts | 160° |
| 2026-04-26 13:56 | 13.93469 | 80.22768 | 20278 ft | 350 kts | 160° |
| 2026-04-26 13:57 | 13.91191 | 80.23635 | 19720 ft | 348 kts | 160° |
| 2026-04-26 13:57 | 13.88934 | 80.24495 | 19162 ft | 345 kts | 160° |
| 2026-04-26 13:57 | 13.86679 | 80.25353 | 18652 ft | 348 kts | 160° |
| 2026-04-26 13:57 | 13.84406 | 80.26218 | 18232 ft | 347 kts | 160° |
| 2026-04-26 13:58 | 13.82160 | 80.27073 | 17968 ft | 341 kts | 160° |
| 2026-04-26 13:58 | 13.79941 | 80.27917 | 17746 ft | 339 kts | 159° |
| 2026-04-26 13:58 | 13.77729 | 80.28758 | 17597 ft | 339 kts | 159° |
| 2026-04-26 13:58 | 13.75522 | 80.29597 | 17430 ft | 338 kts | 159° |
| 2026-04-26 13:59 | 13.74238 | 80.30085 | 17345 ft | 338 kts | 159° |
| 2026-04-26 13:59 | 13.72037 | 80.30921 | 17195 ft | 337 kts | 159° |
| 2026-04-26 13:59 | 13.69834 | 80.31758 | 17044 ft | 337 kts | 159° |
| 2026-04-26 14:00 | 13.63110 | 80.33576 | 16274 ft | 338 kts | 187° |
| 2026-04-26 14:00 | 13.61575 | 80.33281 | 15947 ft | 339 kts | 193° |
| 2026-04-26 14:00 | 13.59291 | 80.32668 | 15464 ft | 340 kts | 194° |
| 2026-04-26 14:01 | 13.57014 | 80.32039 | 15043 ft | 339 kts | 194° |
| 2026-04-26 14:01 | 13.54741 | 80.31424 | 14615 ft | 337 kts | 193° |
| 2026-04-26 14:01 | 13.52468 | 80.30817 | 14211 ft | 336 kts | 193° |
| 2026-04-26 14:01 | 13.50209 | 80.30219 | 13799 ft | 335 kts | 193° |
| 2026-04-26 14:02 | 13.47951 | 80.29624 | 13363 ft | 334 kts | 193° |
| 2026-04-26 14:02 | 13.45705 | 80.29034 | 12933 ft | 332 kts | 193° |
| 2026-04-26 14:02 | 13.43477 | 80.28451 | 12523 ft | 329 kts | 193° |
| 2026-04-26 14:02 | 13.41266 | 80.27872 | 12107 ft | 327 kts | 193° |
| 2026-04-26 14:03 | 13.39067 | 80.27296 | 11712 ft | 325 kts | 192° |
| 2026-04-26 14:03 | 13.36909 | 80.26731 | 11312 ft | 323 kts | 192° |
| 2026-04-26 14:03 | 13.34737 | 80.26162 | 10908 ft | 321 kts | 192° |
| 2026-04-26 14:03 | 13.32576 | 80.25596 | 10512 ft | 320 kts | 192° |
| 2026-04-26 14:04 | 13.30420 | 80.25032 | 10105 ft | 319 kts | 192° |
| 2026-04-26 14:04 | 13.28275 | 80.24471 | 9701 ft | 318 kts | 192° |
| 2026-04-26 14:04 | 13.26132 | 80.23911 | 9279 ft | 317 kts | 192° |
| 2026-04-26 14:04 | 13.23989 | 80.23451 | 8860 ft | 312 kts | 182° |
| 2026-04-26 14:05 | 13.21874 | 80.23681 | 8463 ft | 304 kts | 162° |
| 2026-04-26 14:05 | 13.19861 | 80.24273 | 8083 ft | 299 kts | 160° |
| 2026-04-26 14:05 | 13.17875 | 80.24892 | 7721 ft | 296 kts | 160° |
| 2026-04-26 14:05 | 13.15996 | 80.25703 | 7343 ft | 290 kts | 144° |
| 2026-04-26 14:06 | 13.14625 | 80.27145 | 7002 ft | 281 kts | 117° |
| 2026-04-26 14:06 | 13.14056 | 80.29007 | 6803 ft | 271 kts | 92° |
| 2026-04-26 14:06 | 13.14291 | 80.30854 | 6660 ft | 257 kts | 69° |
| 2026-04-26 14:06 | 13.15157 | 80.32403 | 6527 ft | 244 kts | 54° |
| 2026-04-26 14:07 | 13.16011 | 80.33851 | 6203 ft | 233 kts | 66° |
| 2026-04-26 14:07 | 13.16866 | 80.35188 | 6093 ft | 223 kts | 43° |
| 2026-04-26 14:07 | 13.18186 | 80.36054 | 6091 ft | 229 kts | 22° |
| 2026-04-26 14:07 | 13.19757 | 80.36287 | 6088 ft | 233 kts | 357° |
| 2026-04-26 14:08 | 13.21278 | 80.35762 | 6087 ft | 238 kts | 330° |
| 2026-04-26 14:08 | 13.22459 | 80.34563 | 6096 ft | 242 kts | 309° |
| 2026-04-26 14:08 | 13.23319 | 80.33073 | 6085 ft | 246 kts | 293° |
| 2026-04-26 14:08 | 13.23549 | 80.31336 | 6089 ft | 249 kts | 262° |
| 2026-04-26 14:09 | 13.22813 | 80.29771 | 6088 ft | 247 kts | 224° |
| 2026-04-26 14:09 | 13.21345 | 80.28936 | 6070 ft | 242 kts | 189° |
| 2026-04-26 14:09 | 13.19714 | 80.29082 | 5693 ft | 237 kts | 153° |
| 2026-04-26 14:09 | 13.18532 | 80.30190 | 5323 ft | 233 kts | 116° |
| 2026-04-26 14:10 | 13.18153 | 80.31770 | 5110 ft | 227 kts | 95° |
| 2026-04-26 14:10 | 13.17962 | 80.33381 | 4980 ft | 227 kts | 99° |
| 2026-04-26 14:10 | 13.17336 | 80.34852 | 4864 ft | 228 kts | 131° |
| 2026-04-26 14:10 | 13.15974 | 80.35649 | 4632 ft | 230 kts | 168° |
| 2026-04-26 14:11 | 13.12938 | 80.34769 | 3979 ft | 233 kts | 206° |
| 2026-04-26 14:11 | 13.11506 | 80.33990 | 3639 ft | 233 kts | 206° |
| 2026-04-26 14:11 | 13.10070 | 80.33214 | 3300 ft | 233 kts | 205° |
| 2026-04-26 14:12 | 13.08632 | 80.32448 | 2980 ft | 233 kts | 204° |
| 2026-04-26 14:12 | 13.07191 | 80.31690 | 2686 ft | 231 kts | 205° |
| 2026-04-26 14:12 | 13.05789 | 80.30956 | 2554 ft | 221 kts | 205° |
| 2026-04-26 14:12 | 13.04480 | 80.30183 | 2386 ft | 218 kts | 217° |
| 2026-04-26 14:13 | 13.02916 | 80.27581 | 1859 ft | 220 kts | 251° |
| 2026-04-26 14:13 | 13.02473 | 80.26085 | 1567 ft | 218 kts | 246° |
| 2026-04-26 14:13 | 13.01924 | 80.24659 | 1296 ft | 210 kts | 244° |
| 2026-04-26 14:14 | 13.01394 | 80.23330 | 1033 ft | 192 kts | 245° |
| 2026-04-26 14:14 | 13.00941 | 80.22104 | 809 ft | 176 kts | 245° |
| 2026-04-26 14:14 | 13.00526 | 80.20985 | 617 ft | 158 kts | 244° |
| 2026-04-26 14:14 | 13.00159 | 80.20001 | 422 ft | 144 kts | 246° |
| 2026-04-26 14:15 | 12.99811 | 80.19064 | 242 ft | 137 kts | 246° |
| 2026-04-26 14:15 | 12.99479 | 80.18169 | 94 ft | 131 kts | 247° |
| 2026-04-26 14:15 | 12.99195 | 80.17381 | 60 ft | 99 kts | 251° |
| 2026-04-26 14:15 | 12.99000 | 80.16860 | 55 ft | 58 kts | 250° |
| 2026-04-26 14:16 | 12.98909 | 80.16613 | 56 ft | 16 kts | 249° |
| 2026-04-26 14:16 | 12.98881 | 80.16538 | 55 ft | 13 kts | 248° |
| 2026-04-26 14:16 | 12.98831 | 80.16442 | 53 ft | 17 kts | 235° |
| 2026-04-26 14:16 | 12.98762 | 80.16370 | 55 ft | 7 kts | 217° |
| 2026-04-26 14:17 | 12.98732 | 80.16347 | 55 ft | 0 kts | 217° |
| 2026-04-26 14:17 | 12.98727 | 80.16344 | 56 ft | 2 kts | 217° |
| 2026-04-26 14:18 | 12.98696 | 80.16322 | 56 ft | 8 kts | 203° |
| 2026-04-26 14:18 | 12.98644 | 80.16336 | 57 ft | 9 kts | 133° |
| 2026-04-26 14:18 | 12.98636 | 80.16405 | 57 ft | 11 kts | 74° |
| 2026-04-26 14:18 | 12.98670 | 80.16495 | 58 ft | 16 kts | 69° |
| 2026-04-26 14:19 | 12.98706 | 80.16594 | 55 ft | 0 kts | 69° |
| 2026-04-26 14:19 | 12.98725 | 80.16645 | 58 ft | 17 kts | 69° |
| 2026-04-26 14:19 | 12.98730 | 80.16666 | 59 ft | 7 kts | 80° |
| 2026-04-26 14:19 | 12.98710 | 80.16721 | 54 ft | 9 kts | 139° |
| 2026-04-26 14:20 | 12.98644 | 80.16755 | 55 ft | 12 kts | 155° |
| 2026-04-26 14:20 | 12.98580 | 80.16724 | 59 ft | 12 kts | 232° |
| 2026-04-26 14:20 | 12.98544 | 80.16635 | 54 ft | 15 kts | 251° |
| 2026-04-26 14:20 | 12.98509 | 80.16530 | 56 ft | 14 kts | 251° |
| 2026-04-26 14:21 | 12.98504 | 80.16516 | 59 ft | 0 kts | 251° |
| 2026-04-26 14:21 | 12.98501 | 80.16507 | 53 ft | 4 kts | 251° |
| 2026-04-26 14:21 | 12.98492 | 80.16488 | 53 ft | 6 kts | 236° |
| 2026-04-26 14:22 | 12.98459 | 80.16483 | 56 ft | 6 kts | 174° |
| 2026-04-26 14:22 | 12.98427 | 80.16489 | 55 ft | 0 kts | 167° |